Terminal Aerodrome Forecast
Issued by NWS

Home | Current Version | Previous Version | Text Only | Print | Product List | Glossary On
Versions: 1 2 3 4 5 6 7 8 9 10 11 12 13 14 15 16
000
FTUS46 KMTR 281700
TAFMRY
TAF
KMRY 281739Z 2818/2918 VRB04KT P6SM SKC
     FM282200 29010G15KT P6SM SCT200
     FM290300 24004KT P6SM FEW008=

USA.gov is the U.S. government's official web portal to all federal, state and local government web resources and services.